sensor_id;sensor_type;location;lat;lon;timestamp;P1;durP1;ratioP1;P2;durP2;ratioP2
2772;SDS011;1394;47.044;15.744;2022-09-09T00:00:21;13.77;;;0.30;;
2772;SDS011;1394;47.044;15.744;2022-09-09T00:02:52;13.30;;;0.30;;
2772;SDS011;1394;47.044;15.744;2022-09-09T00:05:23;16.83;;;0.30;;
2772;SDS011;1394;47.044;15.744;2022-09-09T00:07:55;2.30;;;0.20;;
2772;SDS011;1394;47.044;15.744;2022-09-09T00:10:26;68.17;;;26.27;;
2772;SDS011;1394;47.044;15.744;2022-09-09T00:12:57;60.80;;;15.23;;
2772;SDS011;1394;47.044;15.744;2022-09-09T00:15:28;41.80;;;1.80;;
2772;SDS011;1394;47.044;15.744;2022-09-09T00:18:00;39.03;;;4.20;;
2772;SDS011;1394;47.044;15.744;2022-09-09T00:20:32;12.10;;;0.33;;
2772;SDS011;1394;47.044;15.744;2022-09-09T00:23:14;5.00;;;0.20;;
2772;SDS011;1394;47.044;15.744;2022-09-09T00:25:46;38.47;;;0.90;;
2772;SDS011;1394;47.044;15.744;2022-09-09T00:28:18;10.70;;;0.30;;
2772;SDS011;1394;47.044;15.744;2022-09-09T00:30:47;1.67;;;0.20;;
2772;SDS011;1394;47.044;15.744;2022-09-09T00:33:15;2.70;;;0.23;;
2772;SDS011;1394;47.044;15.744;2022-09-09T00:35:44;25.60;;;0.40;;
2772;SDS011;1394;47.044;15.744;2022-09-09T00:38:12;31.00;;;0.50;;
2772;SDS011;1394;47.044;15.744;2022-09-09T00:40:41;28.90;;;0.40;;
2772;SDS011;1394;47.044;15.744;2022-09-09T00:43:16;6.53;;;0.20;;
2772;SDS011;1394;47.044;15.744;2022-09-09T00:45:59;0.10;;;0.10;;
2772;SDS011;1394;47.044;15.744;2022-09-09T00:48:32;5.10;;;0.20;;
2772;SDS011;1394;47.044;15.744;2022-09-09T00:51:03;2.60;;;0.20;;
2772;SDS011;1394;47.044;15.744;2022-09-09T00:53:34;8.90;;;0.20;;
2772;SDS011;1394;47.044;15.744;2022-09-09T00:56:08;5.90;;;0.20;;
2772;SDS011;1394;47.044;15.744;2022-09-09T00:58:38;45.50;;;1.47;;
2772;SDS011;1394;47.044;15.744;2022-09-09T01:01:08;46.60;;;3.20;;
2772;SDS011;1394;47.044;15.744;2022-09-09T01:03:37;46.30;;;2.37;;
2772;SDS011;1394;47.044;15.744;2022-09-09T01:06:11;46.07;;;1.70;;
2772;SDS011;1394;47.044;15.744;2022-09-09T01:08:52;46.20;;;2.30;;
2772;SDS011;1394;47.044;15.744;2022-09-09T01:11:24;47.00;;;3.10;;
2772;SDS011;1394;47.044;15.744;2022-09-09T01:13:53;45.17;;;2.10;;
2772;SDS011;1394;47.044;15.744;2022-09-09T01:16:26;48.37;;;2.70;;
2772;SDS011;1394;47.044;15.744;2022-09-09T01:18:54;48.07;;;2.17;;
2772;SDS011;1394;47.044;15.744;2022-09-09T01:21:25;48.80;;;3.60;;
2772;SDS011;1394;47.044;15.744;2022-09-09T01:24:03;48.50;;;3.13;;
2772;SDS011;1394;47.044;15.744;2022-09-09T01:26:33;48.70;;;2.77;;
2772;SDS011;1394;47.044;15.744;2022-09-09T01:29:01;48.60;;;2.73;;
2772;SDS011;1394;47.044;15.744;2022-09-09T01:31:28;48.27;;;2.50;;
2772;SDS011;1394;47.044;15.744;2022-09-09T01:33:56;48.20;;;2.50;;
2772;SDS011;1394;47.044;15.744;2022-09-09T01:36:26;48.40;;;2.60;;
2772;SDS011;1394;47.044;15.744;2022-09-09T01:38:55;48.10;;;2.10;;
2772;SDS011;1394;47.044;15.744;2022-09-09T01:41:23;48.60;;;3.00;;
2772;SDS011;1394;47.044;15.744;2022-09-09T01:43:52;48.30;;;2.50;;
2772;SDS011;1394;47.044;15.744;2022-09-09T01:46:20;48.20;;;2.53;;
2772;SDS011;1394;47.044;15.744;2022-09-09T01:48:48;48.10;;;2.20;;
2772;SDS011;1394;47.044;15.744;2022-09-09T01:51:16;48.77;;;2.97;;
2772;SDS011;1394;47.044;15.744;2022-09-09T01:53:44;49.07;;;3.37;;
2772;SDS011;1394;47.044;15.744;2022-09-09T01:56:15;48.80;;;2.63;;
2772;SDS011;1394;47.044;15.744;2022-09-09T01:58:50;48.70;;;2.40;;
2772;SDS011;1394;47.044;15.744;2022-09-09T02:01:25;49.00;;;2.90;;
2772;SDS011;1394;47.044;15.744;2022-09-09T02:03:56;39.37;;;1.10;;
2772;SDS011;1394;47.044;15.744;2022-09-09T02:06:26;40.20;;;1.33;;
2772;SDS011;1394;47.044;15.744;2022-09-09T02:08:55;54.00;;;9.50;;
2772;SDS011;1394;47.044;15.744;2022-09-09T02:11:26;49.60;;;2.70;;
2772;SDS011;1394;47.044;15.744;2022-09-09T02:13:54;49.67;;;2.90;;
2772;SDS011;1394;47.044;15.744;2022-09-09T02:16:26;50.03;;;3.43;;
2772;SDS011;1394;47.044;15.744;2022-09-09T02:18:56;50.23;;;3.43;;
2772;SDS011;1394;47.044;15.744;2022-09-09T02:21:24;49.80;;;2.90;;
2772;SDS011;1394;47.044;15.744;2022-09-09T02:23:53;49.37;;;2.57;;
2772;SDS011;1394;47.044;15.744;2022-09-09T02:26:21;49.40;;;2.90;;
2772;SDS011;1394;47.044;15.744;2022-09-09T02:28:49;49.77;;;2.57;;
2772;SDS011;1394;47.044;15.744;2022-09-09T02:31:17;49.20;;;2.63;;
2772;SDS011;1394;47.044;15.744;2022-09-09T02:33:50;49.60;;;2.67;;
2772;SDS011;1394;47.044;15.744;2022-09-09T02:36:18;49.17;;;2.50;;
2772;SDS011;1394;47.044;15.744;2022-09-09T02:38:47;49.23;;;2.60;;
2772;SDS011;1394;47.044;15.744;2022-09-09T02:41:18;49.30;;;2.53;;
2772;SDS011;1394;47.044;15.744;2022-09-09T02:43:50;50.20;;;3.03;;
2772;SDS011;1394;47.044;15.744;2022-09-09T02:46:27;50.17;;;3.80;;
2772;SDS011;1394;47.044;15.744;2022-09-09T02:49:00;49.40;;;2.70;;
2772;SDS011;1394;47.044;15.744;2022-09-09T02:51:32;49.57;;;2.87;;
2772;SDS011;1394;47.044;15.744;2022-09-09T02:54:04;49.47;;;3.00;;
2772;SDS011;1394;47.044;15.744;2022-09-09T02:56:36;60.03;;;13.37;;
2772;SDS011;1394;47.044;15.744;2022-09-09T02:59:06;50.90;;;2.90;;
2772;SDS011;1394;47.044;15.744;2022-09-09T03:01:33;50.60;;;3.10;;
2772;SDS011;1394;47.044;15.744;2022-09-09T03:04:02;51.30;;;3.57;;
2772;SDS011;1394;47.044;15.744;2022-09-09T03:06:30;50.93;;;3.10;;
2772;SDS011;1394;47.044;15.744;2022-09-09T03:08:57;51.77;;;4.33;;
2772;SDS011;1394;47.044;15.744;2022-09-09T03:11:26;51.27;;;3.90;;
2772;SDS011;1394;47.044;15.744;2022-09-09T03:13:54;43.70;;;1.83;;
2772;SDS011;1394;47.044;15.744;2022-09-09T03:16:22;10.90;;;0.30;;
2772;SDS011;1394;47.044;15.744;2022-09-09T03:18:49;47.00;;;2.37;;
2772;SDS011;1394;47.044;15.744;2022-09-09T03:21:18;53.63;;;3.60;;
2772;SDS011;1394;47.044;15.744;2022-09-09T03:23:46;52.60;;;3.90;;
2772;SDS011;1394;47.044;15.744;2022-09-09T03:26:13;52.47;;;3.70;;
2772;SDS011;1394;47.044;15.744;2022-09-09T03:28:41;52.77;;;3.30;;
2772;SDS011;1394;47.044;15.744;2022-09-09T03:31:09;52.20;;;3.33;;
2772;SDS011;1394;47.044;15.744;2022-09-09T03:33:37;52.40;;;3.13;;
2772;SDS011;1394;47.044;15.744;2022-09-09T03:36:06;53.33;;;3.90;;
2772;SDS011;1394;47.044;15.744;2022-09-09T03:38:36;52.70;;;4.13;;
2772;SDS011;1394;47.044;15.744;2022-09-09T03:41:04;52.57;;;3.80;;
2772;SDS011;1394;47.044;15.744;2022-09-09T03:43:33;52.57;;;3.50;;
2772;SDS011;1394;47.044;15.744;2022-09-09T03:46:00;53.67;;;3.57;;
2772;SDS011;1394;47.044;15.744;2022-09-09T03:48:27;52.27;;;3.40;;
2772;SDS011;1394;47.044;15.744;2022-09-09T03:50:54;52.07;;;3.33;;
2772;SDS011;1394;47.044;15.744;2022-09-09T03:53:23;55.40;;;3.63;;
2772;SDS011;1394;47.044;15.744;2022-09-09T03:55:52;52.67;;;3.20;;
2772;SDS011;1394;47.044;15.744;2022-09-09T03:58:20;53.50;;;3.83;;
2772;SDS011;1394;47.044;15.744;2022-09-09T04:00:52;52.13;;;3.43;;
2772;SDS011;1394;47.044;15.744;2022-09-09T04:03:20;53.90;;;4.17;;
2772;SDS011;1394;47.044;15.744;2022-09-09T04:05:49;53.10;;;3.20;;
2772;SDS011;1394;47.044;15.744;2022-09-09T04:08:16;52.40;;;3.70;;
2772;SDS011;1394;47.044;15.744;2022-09-09T04:10:44;52.57;;;3.13;;
2772;SDS011;1394;47.044;15.744;2022-09-09T04:13:14;52.40;;;3.77;;
2772;SDS011;1394;47.044;15.744;2022-09-09T04:15:42;51.97;;;3.00;;
2772;SDS011;1394;47.044;15.744;2022-09-09T04:18:13;52.07;;;3.63;;
2772;SDS011;1394;47.044;15.744;2022-09-09T04:20:40;51.90;;;2.80;;
2772;SDS011;1394;47.044;15.744;2022-09-09T04:23:10;52.90;;;4.07;;
2772;SDS011;1394;47.044;15.744;2022-09-09T04:25:43;52.67;;;3.67;;
2772;SDS011;1394;47.044;15.744;2022-09-09T04:28:11;52.60;;;4.00;;
2772;SDS011;1394;47.044;15.744;2022-09-09T04:30:40;52.43;;;3.50;;
2772;SDS011;1394;47.044;15.744;2022-09-09T04:33:08;43.00;;;1.53;;
2772;SDS011;1394;47.044;15.744;2022-09-09T04:35:36;80.20;;;62.30;;
2772;SDS011;1394;47.044;15.744;2022-09-09T04:38:04;50.40;;;3.47;;
2772;SDS011;1394;47.044;15.744;2022-09-09T04:40:32;49.77;;;2.77;;
2772;SDS011;1394;47.044;15.744;2022-09-09T04:43:00;50.00;;;2.67;;
2772;SDS011;1394;47.044;15.744;2022-09-09T04:45:28;49.40;;;2.60;;
2772;SDS011;1394;47.044;15.744;2022-09-09T04:47:56;49.20;;;2.40;;
2772;SDS011;1394;47.044;15.744;2022-09-09T04:50:24;49.47;;;2.90;;
2772;SDS011;1394;47.044;15.744;2022-09-09T04:52:53;49.43;;;2.37;;
2772;SDS011;1394;47.044;15.744;2022-09-09T04:55:20;49.90;;;3.03;;
2772;SDS011;1394;47.044;15.744;2022-09-09T04:57:48;49.20;;;2.40;;
2772;SDS011;1394;47.044;15.744;2022-09-09T05:00:18;49.90;;;2.90;;
2772;SDS011;1394;47.044;15.744;2022-09-09T05:02:46;51.40;;;5.03;;
2772;SDS011;1394;47.044;15.744;2022-09-09T05:05:15;50.00;;;2.90;;
2772;SDS011;1394;47.044;15.744;2022-09-09T05:07:43;50.10;;;2.90;;
2772;SDS011;1394;47.044;15.744;2022-09-09T05:10:11;50.70;;;3.47;;
2772;SDS011;1394;47.044;15.744;2022-09-09T05:12:39;50.17;;;3.20;;
2772;SDS011;1394;47.044;15.744;2022-09-09T05:15:08;50.27;;;2.97;;
2772;SDS011;1394;47.044;15.744;2022-09-09T05:17:36;47.97;;;2.80;;
2772;SDS011;1394;47.044;15.744;2022-09-09T05:20:04;48.07;;;2.50;;
2772;SDS011;1394;47.044;15.744;2022-09-09T05:22:33;48.07;;;2.50;;
2772;SDS011;1394;47.044;15.744;2022-09-09T05:25:02;48.03;;;2.40;;
2772;SDS011;1394;47.044;15.744;2022-09-09T05:27:29;48.23;;;3.10;;
2772;SDS011;1394;47.044;15.744;2022-09-09T05:29:56;48.20;;;2.60;;
2772;SDS011;1394;47.044;15.744;2022-09-09T05:32:24;49.03;;;3.97;;
2772;SDS011;1394;47.044;15.744;2022-09-09T05:34:51;48.20;;;2.60;;
2772;SDS011;1394;47.044;15.744;2022-09-09T05:37:18;48.97;;;3.23;;
2772;SDS011;1394;47.044;15.744;2022-09-09T05:39:47;49.17;;;4.03;;
2772;SDS011;1394;47.044;15.744;2022-09-09T05:42:15;52.07;;;3.60;;
2772;SDS011;1394;47.044;15.744;2022-09-09T05:44:42;46.60;;;2.40;;
2772;SDS011;1394;47.044;15.744;2022-09-09T05:47:10;46.90;;;2.50;;
2772;SDS011;1394;47.044;15.744;2022-09-09T05:49:37;46.30;;;2.07;;
2772;SDS011;1394;47.044;15.744;2022-09-09T05:52:05;47.40;;;3.07;;
2772;SDS011;1394;47.044;15.744;2022-09-09T05:54:32;46.20;;;1.93;;
2772;SDS011;1394;47.044;15.744;2022-09-09T05:57:01;47.20;;;2.60;;
2772;SDS011;1394;47.044;15.744;2022-09-09T05:59:28;47.00;;;2.90;;
2772;SDS011;1394;47.044;15.744;2022-09-09T06:01:57;47.20;;;2.63;;
2772;SDS011;1394;47.044;15.744;2022-09-09T06:04:25;46.87;;;2.23;;
2772;SDS011;1394;47.044;15.744;2022-09-09T06:06:52;47.77;;;2.37;;
2772;SDS011;1394;47.044;15.744;2022-09-09T06:09:19;47.00;;;2.23;;
2772;SDS011;1394;47.044;15.744;2022-09-09T06:11:47;46.93;;;2.40;;
2772;SDS011;1394;47.044;15.744;2022-09-09T06:14:15;47.90;;;2.43;;
2772;SDS011;1394;47.044;15.744;2022-09-09T06:16:43;47.77;;;2.33;;
2772;SDS011;1394;47.044;15.744;2022-09-09T06:19:11;48.47;;;3.27;;
2772;SDS011;1394;47.044;15.744;2022-09-09T06:21:39;47.70;;;2.17;;
2772;SDS011;1394;47.044;15.744;2022-09-09T06:24:07;48.00;;;2.60;;
2772;SDS011;1394;47.044;15.744;2022-09-09T06:26:35;43.60;;;30.60;;
2772;SDS011;1394;47.044;15.744;2022-09-09T06:29:06;4.70;;;0.20;;
2772;SDS011;1394;47.044;15.744;2022-09-09T06:31:35;50.70;;;3.20;;
2772;SDS011;1394;47.044;15.744;2022-09-09T06:34:04;50.90;;;3.20;;
2772;SDS011;1394;47.044;15.744;2022-09-09T06:36:32;51.50;;;3.80;;
2772;SDS011;1394;47.044;15.744;2022-09-09T06:38:59;50.97;;;3.30;;
2772;SDS011;1394;47.044;15.744;2022-09-09T06:41:28;52.00;;;4.40;;
2772;SDS011;1394;47.044;15.744;2022-09-09T06:43:55;51.77;;;3.90;;
2772;SDS011;1394;47.044;15.744;2022-09-09T06:46:23;52.30;;;4.50;;
2772;SDS011;1394;47.044;15.744;2022-09-09T06:48:54;51.47;;;3.20;;
2772;SDS011;1394;47.044;15.744;2022-09-09T06:51:25;52.13;;;3.90;;
2772;SDS011;1394;47.044;15.744;2022-09-09T06:53:53;51.30;;;3.83;;
2772;SDS011;1394;47.044;15.744;2022-09-09T06:56:21;51.90;;;3.70;;
2772;SDS011;1394;47.044;15.744;2022-09-09T06:58:49;51.40;;;3.30;;
2772;SDS011;1394;47.044;15.744;2022-09-09T07:01:17;51.90;;;4.00;;
2772;SDS011;1394;47.044;15.744;2022-09-09T07:03:46;52.30;;;4.20;;
2772;SDS011;1394;47.044;15.744;2022-09-09T07:06:17;52.03;;;4.07;;
2772;SDS011;1394;47.044;15.744;2022-09-09T07:08:48;51.47;;;3.20;;
2772;SDS011;1394;47.044;15.744;2022-09-09T07:11:16;53.00;;;3.83;;
2772;SDS011;1394;47.044;15.744;2022-09-09T07:13:43;51.50;;;3.40;;
2772;SDS011;1394;47.044;15.744;2022-09-09T07:16:11;52.47;;;4.60;;
2772;SDS011;1394;47.044;15.744;2022-09-09T07:18:39;55.10;;;4.30;;
2772;SDS011;1394;47.044;15.744;2022-09-09T07:21:07;57.50;;;12.03;;
2772;SDS011;1394;47.044;15.744;2022-09-09T07:23:35;52.70;;;4.00;;
2772;SDS011;1394;47.044;15.744;2022-09-09T07:26:06;51.57;;;3.03;;
2772;SDS011;1394;47.044;15.744;2022-09-09T07:28:34;52.80;;;3.63;;
2772;SDS011;1394;47.044;15.744;2022-09-09T07:31:01;52.10;;;3.70;;
2772;SDS011;1394;47.044;15.744;2022-09-09T07:33:29;51.87;;;4.40;;
2772;SDS011;1394;47.044;15.744;2022-09-09T07:36:01;52.90;;;3.20;;
2772;SDS011;1394;47.044;15.744;2022-09-09T07:38:29;51.67;;;3.87;;
2772;SDS011;1394;47.044;15.744;2022-09-09T07:41:04;51.20;;;3.17;;
2772;SDS011;1394;47.044;15.744;2022-09-09T07:43:32;51.70;;;4.70;;
2772;SDS011;1394;47.044;15.744;2022-09-09T07:46:00;51.90;;;3.07;;
2772;SDS011;1394;47.044;15.744;2022-09-09T07:48:31;51.40;;;3.50;;
2772;SDS011;1394;47.044;15.744;2022-09-09T07:51:08;51.60;;;3.63;;
2772;SDS011;1394;47.044;15.744;2022-09-09T07:53:37;54.00;;;5.50;;
2772;SDS011;1394;47.044;15.744;2022-09-09T07:56:07;52.60;;;4.80;;
2772;SDS011;1394;47.044;15.744;2022-09-09T07:58:36;51.10;;;3.27;;
2772;SDS011;1394;47.044;15.744;2022-09-09T08:01:07;51.40;;;3.80;;
2772;SDS011;1394;47.044;15.744;2022-09-09T08:03:34;51.37;;;3.70;;
2772;SDS011;1394;47.044;15.744;2022-09-09T08:06:02;51.20;;;3.53;;
2772;SDS011;1394;47.044;15.744;2022-09-09T08:08:30;52.23;;;3.70;;
2772;SDS011;1394;47.044;15.744;2022-09-09T08:11:08;52.33;;;4.23;;
2772;SDS011;1394;47.044;15.744;2022-09-09T08:13:37;53.20;;;5.70;;
2772;SDS011;1394;47.044;15.744;2022-09-09T08:16:06;51.40;;;3.63;;
2772;SDS011;1394;47.044;15.744;2022-09-09T08:18:34;55.50;;;4.70;;
2772;SDS011;1394;47.044;15.744;2022-09-09T08:21:10;54.87;;;4.70;;
2772;SDS011;1394;47.044;15.744;2022-09-09T08:23:39;54.17;;;3.77;;
2772;SDS011;1394;47.044;15.744;2022-09-09T08:26:09;54.90;;;4.13;;
2772;SDS011;1394;47.044;15.744;2022-09-09T08:28:37;53.40;;;3.60;;
2772;SDS011;1394;47.044;15.744;2022-09-09T08:31:06;53.90;;;4.20;;
2772;SDS011;1394;47.044;15.744;2022-09-09T08:33:33;53.93;;;4.00;;
2772;SDS011;1394;47.044;15.744;2022-09-09T08:36:02;54.80;;;4.20;;
2772;SDS011;1394;47.044;15.744;2022-09-09T08:38:34;53.53;;;4.00;;
2772;SDS011;1394;47.044;15.744;2022-09-09T08:41:14;54.03;;;4.43;;
2772;SDS011;1394;47.044;15.744;2022-09-09T08:43:48;54.07;;;4.20;;
2772;SDS011;1394;47.044;15.744;2022-09-09T08:46:18;54.57;;;5.03;;
2772;SDS011;1394;47.044;15.744;2022-09-09T08:48:51;50.33;;;3.80;;
2772;SDS011;1394;47.044;15.744;2022-09-09T08:51:20;51.10;;;4.00;;
2772;SDS011;1394;47.044;15.744;2022-09-09T08:53:48;52.43;;;2.63;;
2772;SDS011;1394;47.044;15.744;2022-09-09T08:56:19;50.67;;;3.33;;
2772;SDS011;1394;47.044;15.744;2022-09-09T08:58:48;50.30;;;2.37;;
2772;SDS011;1394;47.044;15.744;2022-09-09T09:01:29;51.00;;;3.63;;
2772;SDS011;1394;47.044;15.744;2022-09-09T09:04:00;50.40;;;2.70;;
2772;SDS011;1394;47.044;15.744;2022-09-09T09:06:34;50.57;;;3.30;;
2772;SDS011;1394;47.044;15.744;2022-09-09T09:09:05;50.67;;;3.43;;
2772;SDS011;1394;47.044;15.744;2022-09-09T09:11:38;50.80;;;3.30;;
2772;SDS011;1394;47.044;15.744;2022-09-09T09:14:08;52.50;;;5.83;;
2772;SDS011;1394;47.044;15.744;2022-09-09T09:16:38;50.80;;;3.30;;
2772;SDS011;1394;47.044;15.744;2022-09-09T09:19:07;50.77;;;3.23;;
2772;SDS011;1394;47.044;15.744;2022-09-09T09:21:36;51.23;;;4.07;;
2772;SDS011;1394;47.044;15.744;2022-09-09T09:24:12;51.40;;;3.60;;
2772;SDS011;1394;47.044;15.744;2022-09-09T09:26:42;79.90;;;52.87;;
2772;SDS011;1394;47.044;15.744;2022-09-09T09:29:13;59.20;;;26.30;;
2772;SDS011;1394;47.044;15.744;2022-09-09T09:31:42;52.00;;;6.13;;
2772;SDS011;1394;47.044;15.744;2022-09-09T09:34:09;51.07;;;3.47;;
2772;SDS011;1394;47.044;15.744;2022-09-09T09:36:39;61.93;;;17.83;;
2772;SDS011;1394;47.044;15.744;2022-09-09T09:39:07;56.77;;;19.27;;
2772;SDS011;1394;47.044;15.744;2022-09-09T09:41:35;51.87;;;6.87;;
2772;SDS011;1394;47.044;15.744;2022-09-09T09:44:05;51.87;;;7.77;;
2772;SDS011;1394;47.044;15.744;2022-09-09T09:46:33;51.13;;;6.20;;
2772;SDS011;1394;47.044;15.744;2022-09-09T09:49:02;50.10;;;3.93;;
2772;SDS011;1394;47.044;15.744;2022-09-09T09:51:30;61.60;;;18.77;;
2772;SDS011;1394;47.044;15.744;2022-09-09T09:54:09;49.57;;;2.53;;
2772;SDS011;1394;47.044;15.744;2022-09-09T09:56:42;49.70;;;3.50;;
2772;SDS011;1394;47.044;15.744;2022-09-09T09:59:20;50.40;;;6.30;;
2772;SDS011;1394;47.044;15.744;2022-09-09T10:01:48;50.30;;;5.30;;
2772;SDS011;1394;47.044;15.744;2022-09-09T10:04:16;48.70;;;3.43;;
2772;SDS011;1394;47.044;15.744;2022-09-09T10:06:46;47.17;;;2.23;;
2772;SDS011;1394;47.044;15.744;2022-09-09T10:09:22;47.43;;;2.30;;
2772;SDS011;1394;47.044;15.744;2022-09-09T10:11:52;47.70;;;3.70;;
2772;SDS011;1394;47.044;15.744;2022-09-09T10:14:24;47.57;;;2.70;;
2772;SDS011;1394;47.044;15.744;2022-09-09T10:17:10;47.20;;;3.10;;
2772;SDS011;1394;47.044;15.744;2022-09-09T10:19:42;57.53;;;51.63;;
2772;SDS011;1394;47.044;15.744;2022-09-09T10:22:16;50.07;;;2.57;;
2772;SDS011;1394;47.044;15.744;2022-09-09T10:25:05;49.97;;;2.50;;
2772;SDS011;1394;47.044;15.744;2022-09-09T10:27:42;50.30;;;3.10;;
2772;SDS011;1394;47.044;15.744;2022-09-09T10:30:14;50.60;;;3.40;;
2772;SDS011;1394;47.044;15.744;2022-09-09T10:32:48;49.60;;;2.20;;
2772;SDS011;1394;47.044;15.744;2022-09-09T10:38:10;50.00;;;2.57;;
2772;SDS011;1394;47.044;15.744;2022-09-09T10:40:41;47.40;;;1.80;;
2772;SDS011;1394;47.044;15.744;2022-09-09T10:43:14;48.10;;;2.87;;
2772;SDS011;1394;47.044;15.744;2022-09-09T10:45:49;47.20;;;2.37;;
2772;SDS011;1394;47.044;15.744;2022-09-09T10:48:24;46.73;;;1.80;;
2772;SDS011;1394;47.044;15.744;2022-09-09T10:50:58;46.60;;;2.00;;
2772;SDS011;1394;47.044;15.744;2022-09-09T10:53:34;46.70;;;2.33;;
2772;SDS011;1394;47.044;15.744;2022-09-09T10:56:04;46.20;;;2.00;;
2772;SDS011;1394;47.044;15.744;2022-09-09T10:58:35;46.10;;;2.23;;
2772;SDS011;1394;47.044;15.744;2022-09-09T11:01:06;46.27;;;2.80;;
2772;SDS011;1394;47.044;15.744;2022-09-09T11:03:37;46.40;;;2.17;;
2772;SDS011;1394;47.044;15.744;2022-09-09T11:06:06;46.37;;;2.67;;
2772;SDS011;1394;47.044;15.744;2022-09-09T11:08:34;52.37;;;5.77;;
2772;SDS011;1394;47.044;15.744;2022-09-09T11:11:02;56.50;;;4.87;;
2772;SDS011;1394;47.044;15.744;2022-09-09T11:13:32;54.60;;;3.47;;
2772;SDS011;1394;47.044;15.744;2022-09-09T11:16:03;55.90;;;4.93;;
2772;SDS011;1394;47.044;15.744;2022-09-09T11:18:33;55.00;;;3.70;;
2772;SDS011;1394;47.044;15.744;2022-09-09T11:21:03;55.43;;;3.83;;
2772;SDS011;1394;47.044;15.744;2022-09-09T11:23:35;54.77;;;3.60;;
2772;SDS011;1394;47.044;15.744;2022-09-09T11:26:05;55.57;;;4.53;;
2772;SDS011;1394;47.044;15.744;2022-09-09T11:28:37;54.50;;;3.53;;
2772;SDS011;1394;47.044;15.744;2022-09-09T11:31:13;55.10;;;4.07;;
2772;SDS011;1394;47.044;15.744;2022-09-09T11:33:57;54.57;;;3.33;;
2772;SDS011;1394;47.044;15.744;2022-09-09T11:36:40;52.07;;;3.80;;
2772;SDS011;1394;47.044;15.744;2022-09-09T11:39:21;54.67;;;3.87;;
2772;SDS011;1394;47.044;15.744;2022-09-09T11:41:52;54.60;;;3.20;;
2772;SDS011;1394;47.044;15.744;2022-09-09T11:44:23;55.07;;;4.07;;
2772;SDS011;1394;47.044;15.744;2022-09-09T11:46:52;54.80;;;3.63;;
2772;SDS011;1394;47.044;15.744;2022-09-09T11:49:26;55.07;;;4.10;;
2772;SDS011;1394;47.044;15.744;2022-09-09T11:51:54;58.00;;;3.20;;
2772;SDS011;1394;47.044;15.744;2022-09-09T11:54:29;55.87;;;3.80;;
2772;SDS011;1394;47.044;15.744;2022-09-09T11:56:57;55.30;;;3.57;;
2772;SDS011;1394;47.044;15.744;2022-09-09T11:59:25;54.30;;;3.10;;
2772;SDS011;1394;47.044;15.744;2022-09-09T12:01:54;56.37;;;5.33;;
2772;SDS011;1394;47.044;15.744;2022-09-09T12:04:34;55.10;;;3.87;;
2772;SDS011;1394;47.044;15.744;2022-09-09T12:07:04;55.00;;;3.80;;
2772;SDS011;1394;47.044;15.744;2022-09-09T12:09:33;54.80;;;3.60;;
2772;SDS011;1394;47.044;15.744;2022-09-09T12:12:22;71.27;;;22.97;;
2772;SDS011;1394;47.044;15.744;2022-09-09T12:17:42;1.60;;;0.20;;
2772;SDS011;1394;47.044;15.744;2022-09-09T12:20:12;20.80;;;0.40;;
2772;SDS011;1394;47.044;15.744;2022-09-09T12:22:43;27.00;;;0.50;;
2772;SDS011;1394;47.044;15.744;2022-09-09T12:25:16;28.50;;;0.50;;
2772;SDS011;1394;47.044;15.744;2022-09-09T12:27:48;28.90;;;0.60;;
2772;SDS011;1394;47.044;15.744;2022-09-09T12:30:17;24.70;;;9.43;;
2772;SDS011;1394;47.044;15.744;2022-09-09T12:32:46;67.63;;;25.87;;
2772;SDS011;1394;47.044;15.744;2022-09-09T12:35:17;96.47;;;80.77;;
2772;SDS011;1394;47.044;15.744;2022-09-09T12:37:49;75.70;;;47.40;;
2772;SDS011;1394;47.044;15.744;2022-09-09T12:40:19;49.60;;;2.27;;
2772;SDS011;1394;47.044;15.744;2022-09-09T12:42:47;49.07;;;2.47;;
2772;SDS011;1394;47.044;15.744;2022-09-09T12:45:15;48.97;;;2.80;;
2772;SDS011;1394;47.044;15.744;2022-09-09T12:47:45;48.60;;;2.40;;
2772;SDS011;1394;47.044;15.744;2022-09-09T12:50:18;48.77;;;2.50;;
2772;SDS011;1394;47.044;15.744;2022-09-09T12:52:46;48.47;;;2.20;;
2772;SDS011;1394;47.044;15.744;2022-09-09T12:55:17;48.97;;;2.27;;
2772;SDS011;1394;47.044;15.744;2022-09-09T12:57:46;48.40;;;2.33;;
2772;SDS011;1394;47.044;15.744;2022-09-09T13:00:16;48.17;;;2.10;;
2772;SDS011;1394;47.044;15.744;2022-09-09T13:02:46;48.97;;;2.27;;
2772;SDS011;1394;47.044;15.744;2022-09-09T13:05:16;48.50;;;2.57;;
2772;SDS011;1394;47.044;15.744;2022-09-09T13:07:45;47.90;;;1.70;;
2772;SDS011;1394;47.044;15.744;2022-09-09T13:10:13;48.27;;;2.50;;
2772;SDS011;1394;47.044;15.744;2022-09-09T13:12:41;47.70;;;2.10;;
2772;SDS011;1394;47.044;15.744;2022-09-09T13:15:12;50.57;;;3.23;;
2772;SDS011;1394;47.044;15.744;2022-09-09T13:17:42;49.70;;;2.10;;
2772;SDS011;1394;47.044;15.744;2022-09-09T13:20:15;52.60;;;3.33;;
2772;SDS011;1394;47.044;15.744;2022-09-09T13:22:44;50.30;;;2.70;;
2772;SDS011;1394;47.044;15.744;2022-09-09T13:25:18;50.40;;;2.87;;
2772;SDS011;1394;47.044;15.744;2022-09-09T13:27:51;47.00;;;2.10;;
2772;SDS011;1394;47.044;15.744;2022-09-09T13:30:21;47.53;;;2.13;;
2772;SDS011;1394;47.044;15.744;2022-09-09T13:32:59;47.77;;;2.30;;
2772;SDS011;1394;47.044;15.744;2022-09-09T13:35:27;47.90;;;2.40;;
2772;SDS011;1394;47.044;15.744;2022-09-09T13:37:57;47.87;;;2.53;;
2772;SDS011;1394;47.044;15.744;2022-09-09T13:40:25;48.50;;;3.07;;
2772;SDS011;1394;47.044;15.744;2022-09-09T13:42:54;48.57;;;2.90;;
2772;SDS011;1394;47.044;15.744;2022-09-09T13:45:22;48.60;;;3.13;;
2772;SDS011;1394;47.044;15.744;2022-09-09T13:47:52;3.83;;;0.20;;
2772;SDS011;1394;47.044;15.744;2022-09-09T13:50:21;46.60;;;2.40;;
2772;SDS011;1394;47.044;15.744;2022-09-09T13:52:49;46.60;;;2.17;;
2772;SDS011;1394;47.044;15.744;2022-09-09T13:55:21;46.87;;;2.83;;
2772;SDS011;1394;47.044;15.744;2022-09-09T13:57:52;46.77;;;2.23;;
2772;SDS011;1394;47.044;15.744;2022-09-09T14:00:19;47.60;;;4.80;;
2772;SDS011;1394;47.044;15.744;2022-09-09T14:02:47;47.00;;;2.90;;
2772;SDS011;1394;47.044;15.744;2022-09-09T14:05:15;47.07;;;2.93;;
2772;SDS011;1394;47.044;15.744;2022-09-09T14:07:45;47.03;;;2.60;;
2772;SDS011;1394;47.044;15.744;2022-09-09T14:10:13;46.90;;;2.30;;
2772;SDS011;1394;47.044;15.744;2022-09-09T14:12:41;46.90;;;2.30;;
2772;SDS011;1394;47.044;15.744;2022-09-09T14:15:09;46.87;;;2.53;;
2772;SDS011;1394;47.044;15.744;2022-09-09T14:17:37;46.90;;;2.33;;
2772;SDS011;1394;47.044;15.744;2022-09-09T14:20:05;47.03;;;3.63;;
2772;SDS011;1394;47.044;15.744;2022-09-09T14:22:34;55.00;;;3.90;;
2772;SDS011;1394;47.044;15.744;2022-09-09T14:25:01;55.40;;;5.30;;
2772;SDS011;1394;47.044;15.744;2022-09-09T14:27:30;55.60;;;5.67;;
2772;SDS011;1394;47.044;15.744;2022-09-09T14:29:59;52.93;;;12.90;;
2772;SDS011;1394;47.044;15.744;2022-09-09T14:32:26;46.87;;;2.00;;
2772;SDS011;1394;47.044;15.744;2022-09-09T14:34:56;46.90;;;1.87;;
2772;SDS011;1394;47.044;15.744;2022-09-09T14:37:23;47.00;;;2.40;;
2772;SDS011;1394;47.044;15.744;2022-09-09T14:39:51;46.60;;;1.73;;
2772;SDS011;1394;47.044;15.744;2022-09-09T14:42:19;47.00;;;1.93;;
2772;SDS011;1394;47.044;15.744;2022-09-09T14:44:47;46.50;;;1.80;;
2772;SDS011;1394;47.044;15.744;2022-09-09T14:47:15;46.70;;;1.90;;
2772;SDS011;1394;47.044;15.744;2022-09-09T14:49:43;46.80;;;1.80;;
2772;SDS011;1394;47.044;15.744;2022-09-09T14:52:10;46.87;;;1.80;;
2772;SDS011;1394;47.044;15.744;2022-09-09T14:54:38;46.50;;;1.63;;
2772;SDS011;1394;47.044;15.744;2022-09-09T14:57:06;49.47;;;2.27;;
2772;SDS011;1394;47.044;15.744;2022-09-09T14:59:33;53.97;;;3.40;;
2772;SDS011;1394;47.044;15.744;2022-09-09T15:02:00;55.33;;;3.80;;
2772;SDS011;1394;47.044;15.744;2022-09-09T15:04:32;54.53;;;3.23;;
2772;SDS011;1394;47.044;15.744;2022-09-09T15:07:00;54.50;;;3.70;;
2772;SDS011;1394;47.044;15.744;2022-09-09T15:09:28;54.37;;;3.80;;